createdAt,value
2017-07-02T00:00:16.332Z,18.52
2017-07-02T00:00:56.845Z,18.48
2017-07-02T00:01:37.388Z,18.55
2017-07-02T00:02:17.907Z,18.41
2017-07-02T00:02:58.422Z,18.39
2017-07-02T00:03:38.942Z,18.36
2017-07-02T00:04:19.461Z,18.33
2017-07-02T00:04:59.982Z,18.32
2017-07-02T00:05:40.511Z,18.2
2017-07-02T00:06:21.034Z,18.2
2017-07-02T00:07:01.542Z,18.21
2017-07-02T00:07:42.060Z,18.18
2017-07-02T00:08:22.580Z,18.11
2017-07-02T00:09:03.095Z,18.18
2017-07-02T00:09:43.611Z,18.12
2017-07-02T00:10:24.147Z,18.14
2017-07-02T00:11:04.731Z,18.17
2017-07-02T00:11:45.242Z,18.17
2017-07-02T00:12:25.759Z,18.12
2017-07-02T00:13:06.351Z,18.1
2017-07-02T00:13:46.860Z,18.14
2017-07-02T00:14:27.380Z,18.12
2017-07-02T00:16:25.580Z,18.1
2017-07-02T00:17:06.099Z,18.1
2017-07-02T00:17:46.618Z,18.07
2017-07-02T00:18:27.160Z,18.03
2017-07-02T00:19:07.675Z,18.1
2017-07-02T00:19:48.196Z,17.93
2017-07-02T00:20:28.708Z,17.99
2017-07-02T00:21:09.218Z,17.99
2017-07-02T00:21:49.753Z,18
2017-07-02T00:22:30.276Z,17.96
2017-07-02T00:23:10.803Z,17.99
2017-07-02T00:23:51.305Z,17.93
2017-07-02T00:24:31.839Z,17.95
2017-07-02T00:25:12.339Z,18
2017-07-02T00:25:52.879Z,17.97
2017-07-02T00:26:33.403Z,17.86
2017-07-02T00:27:13.916Z,17.93
2017-07-02T00:27:54.453Z,17.7
2017-07-02T00:28:34.969Z,17.74
2017-07-02T00:29:15.478Z,17.9
2017-07-02T00:29:55.992Z,17.9
2017-07-02T00:30:36.525Z,17.87
2017-07-02T00:31:17.039Z,17.93
2017-07-02T00:31:57.554Z,17.99
2017-07-02T00:32:38.075Z,18.03
2017-07-02T00:33:18.633Z,18.02
2017-07-02T00:33:59.146Z,18.03
2017-07-02T00:34:39.659Z,18.02
2017-07-02T00:35:20.175Z,17.93
2017-07-02T00:36:00.685Z,18.03
2017-07-02T00:36:41.196Z,18.03
2017-07-02T00:37:21.723Z,18.05
2017-07-02T00:38:02.240Z,17.97
2017-07-02T00:38:42.772Z,18.1
2017-07-02T00:39:23.292Z,18.02
2017-07-02T00:40:03.813Z,18.05
2017-07-02T00:40:44.332Z,18.03
2017-07-02T00:41:24.858Z,18.07
2017-07-02T00:42:05.388Z,18.07
2017-07-02T00:42:45.900Z,17.97
2017-07-02T00:43:26.422Z,18.1
2017-07-02T00:44:06.952Z,18.1
2017-07-02T00:44:47.477Z,18.08
2017-07-02T00:45:27.996Z,18.12
2017-07-02T00:46:08.505Z,18.14
2017-07-02T00:46:49.030Z,18.11
2017-07-02T00:47:29.531Z,18.17
2017-07-02T00:48:10.074Z,18.15
2017-07-02T00:48:50.632Z,18.11
2017-07-02T00:49:31.089Z,18.14
2017-07-02T00:50:11.628Z,18.12
2017-07-02T00:50:52.099Z,18.02
2017-07-02T00:51:32.633Z,18.07
2017-07-02T00:52:13.148Z,18.14
2017-07-02T00:52:53.642Z,18.2
2017-07-02T00:53:34.158Z,18.26
2017-07-02T00:54:14.622Z,18.21
2017-07-02T00:54:55.274Z,18.33
2017-07-02T00:56:33.132Z,18.37
2017-07-02T00:57:13.632Z,18.45
2017-07-02T00:57:54.146Z,18.45
2017-07-02T00:58:34.673Z,18.45
2017-07-02T00:59:15.206Z,18.47
2017-07-02T00:59:55.725Z,18.54
2017-07-02T01:00:36.253Z,18.52
2017-07-02T01:01:16.750Z,18.58
2017-07-02T01:01:57.243Z,18.63
2017-07-02T01:02:37.758Z,18.63
2017-07-02T01:03:18.249Z,18.67
2017-07-02T01:03:58.743Z,18.69
2017-07-02T01:04:39.226Z,18.73
2017-07-02T01:05:19.744Z,18.73
2017-07-02T01:06:00.244Z,18.73
2017-07-02T01:06:40.813Z,18.7
2017-07-02T01:07:21.295Z,18.72
2017-07-02T01:08:01.811Z,18.78
2017-07-02T01:08:42.341Z,18.87
2017-07-02T01:09:22.838Z,18.84
2017-07-02T01:10:03.350Z,18.99
2017-07-02T01:10:43.848Z,18.85
2017-07-02T01:11:24.370Z,18.88
2017-07-02T01:12:04.895Z,18.91
2017-07-02T01:12:45.434Z,19.02
2017-07-02T01:13:25.945Z,19
2017-07-02T01:14:06.516Z,19.08
2017-07-02T01:14:47.041Z,19.08
2017-07-02T01:15:27.582Z,19.04
2017-07-02T01:16:08.115Z,19.11
2017-07-02T01:16:48.602Z,19.08
2017-07-02T01:17:29.108Z,19.08
2017-07-02T01:18:09.582Z,19.04
2017-07-02T01:18:50.064Z,19.04
2017-07-02T01:19:30.581Z,19.08
2017-07-02T01:20:11.131Z,18.85
2017-07-02T01:20:51.629Z,18.84
2017-07-02T01:21:32.205Z,18.85
2017-07-02T01:22:12.767Z,18.76
2017-07-02T01:22:53.229Z,18.72
2017-07-02T01:23:33.753Z,18.72
2017-07-02T01:24:14.279Z,18.63
2017-07-02T01:24:54.776Z,18.62
2017-07-02T01:25:35.299Z,18.58
2017-07-02T01:26:15.782Z,18.63
2017-07-02T01:26:56.332Z,18.44
2017-07-02T01:27:36.878Z,18.44
2017-07-02T01:28:17.447Z,18.3
2017-07-02T01:28:58.021Z,18.36
2017-07-02T01:29:38.501Z,18.32
2017-07-02T01:30:19.063Z,18.3
2017-07-02T01:30:59.546Z,18.25
2017-07-02T01:31:40.069Z,18.29
2017-07-02T01:32:20.573Z,18.32
2017-07-02T01:33:01.181Z,18.3
2017-07-02T01:33:41.641Z,18.33
2017-07-02T01:34:22.195Z,18.27
2017-07-02T01:35:02.809Z,18.26
2017-07-02T01:35:43.269Z,18.3
2017-07-02T01:36:23.761Z,18.36
2017-07-02T01:37:04.270Z,18.41
2017-07-02T01:37:44.792Z,18.42
2017-07-02T01:38:25.296Z,18.39
2017-07-02T01:39:05.815Z,18.44
2017-07-02T01:39:46.342Z,18.48
2017-07-02T01:40:26.846Z,18.39
2017-07-02T01:41:07.356Z,18.37
2017-07-02T01:41:47.819Z,18.51
2017-07-02T01:42:28.345Z,18.48
2017-07-02T01:43:08.854Z,18.58
2017-07-02T01:43:49.354Z,18.52
2017-07-02T01:44:29.839Z,18.63
2017-07-02T01:45:10.351Z,18.6
2017-07-02T01:45:50.908Z,18.73
2017-07-02T01:46:31.357Z,18.75
2017-07-02T01:47:11.912Z,18.73
2017-07-02T01:47:52.450Z,18.84
2017-07-02T01:48:32.875Z,18.88
2017-07-02T01:49:14.068Z,19
2017-07-02T01:49:54.449Z,19.04
2017-07-02T01:50:34.943Z,18.95
2017-07-02T01:51:15.475Z,19.04
2017-07-02T01:51:55.922Z,19.07
2017-07-02T01:52:36.460Z,19.1
2017-07-02T01:53:16.958Z,19.13
2017-07-02T01:53:57.423Z,19.06
2017-07-02T01:54:37.927Z,19.04
2017-07-02T01:55:18.411Z,19.02
2017-07-02T01:55:58.914Z,19.02
2017-07-02T01:56:39.431Z,19.04
2017-07-02T01:57:19.930Z,19.08
2017-07-02T01:58:00.413Z,19.07
2017-07-02T01:58:40.929Z,19.13
2017-07-02T01:59:21.456Z,19.14
2017-07-02T02:00:02.008Z,19.04
2017-07-02T02:00:42.447Z,19.07
2017-07-02T02:01:23.023Z,19.08
2017-07-02T02:02:03.473Z,19.08
2017-07-02T02:02:43.968Z,19.06
2017-07-02T02:03:24.460Z,19.04
2017-07-02T02:04:04.976Z,19.11
2017-07-02T02:04:45.468Z,19.06
2017-07-02T02:05:25.991Z,19.11
2017-07-02T02:06:06.486Z,19.16
2017-07-02T02:06:47.019Z,19.26
2017-07-02T02:07:27.466Z,19.22
2017-07-02T02:08:07.961Z,19.29
2017-07-02T02:08:48.473Z,19.23
2017-07-02T02:09:28.993Z,19.22
2017-07-02T02:10:09.514Z,19.32
2017-07-02T02:10:50.015Z,19.26
2017-07-02T02:11:30.490Z,19.31
2017-07-02T02:12:11.070Z,19.31
2017-07-02T02:12:51.546Z,19.36
2017-07-02T02:13:32.087Z,19.37
2017-07-02T02:14:12.570Z,19.4
2017-07-02T02:14:52.993Z,19.4
2017-07-02T02:15:33.549Z,19.43
2017-07-02T02:16:14.068Z,19.43
2017-07-02T02:16:54.559Z,19.41
2017-07-02T02:17:35.075Z,19.33
2017-07-02T02:18:15.572Z,19.22
2017-07-02T02:18:56.090Z,19.23
2017-07-02T02:19:36.614Z,19.21
2017-07-02T02:20:17.209Z,19.14
2017-07-02T02:20:57.659Z,19.19
2017-07-02T02:21:38.203Z,19.29
2017-07-02T02:22:18.675Z,19.25
2017-07-02T02:22:59.259Z,19.28
2017-07-02T02:23:39.678Z,19.25
2017-07-02T02:25:37.968Z,19.18
2017-07-02T02:26:18.564Z,19.26
2017-07-02T02:26:59.087Z,19.28
2017-07-02T02:27:39.612Z,19.23
2017-07-02T02:28:20.113Z,19.31
2017-07-02T02:29:00.639Z,19.26
2017-07-02T02:29:41.158Z,19.28
2017-07-02T02:30:21.657Z,19.25
2017-07-02T02:31:02.163Z,19.16
2017-07-02T02:31:42.704Z,19.28
2017-07-02T02:32:23.198Z,19.14
2017-07-02T02:33:03.711Z,19.13
2017-07-02T02:33:44.225Z,19.11
2017-07-02T02:34:24.739Z,19.13
2017-07-02T02:35:05.263Z,19.16
2017-07-02T02:35:45.787Z,19.14
2017-07-02T02:36:26.291Z,19.13
2017-07-02T02:37:06.811Z,19.16
2017-07-02T02:37:47.335Z,19.16
2017-07-02T02:38:27.804Z,19.14
2017-07-02T02:39:08.314Z,19.14
2017-07-02T02:39:48.828Z,19.13
2017-07-02T02:40:29.343Z,19.14
2017-07-02T02:41:09.943Z,19.21
2017-07-02T02:41:50.384Z,19.23
2017-07-02T02:42:30.904Z,19.26
2017-07-02T02:43:11.424Z,19.19
2017-07-02T02:43:51.929Z,19.21
2017-07-02T02:44:32.423Z,19.21
2017-07-02T02:46:45.710Z,19.16
2017-07-02T02:47:26.185Z,19.14
2017-07-02T02:48:06.713Z,19.21
2017-07-02T02:48:47.232Z,19.07
2017-07-02T02:49:27.758Z,19.13
2017-07-02T02:50:08.355Z,19.08
2017-07-02T02:50:48.877Z,19.02
2017-07-02T02:51:29.407Z,19.08
2017-07-02T02:52:09.953Z,19.08
2017-07-02T02:52:50.476Z,19.02
2017-07-02T02:53:30.989Z,19.07
2017-07-02T02:54:11.498Z,19.06
2017-07-02T02:54:51.970Z,18.99
2017-07-02T02:55:32.485Z,18.99
2017-07-02T02:56:12.995Z,18.92
2017-07-02T02:56:53.528Z,18.87
2017-07-02T02:57:34.059Z,18.95
2017-07-02T02:58:14.601Z,18.91
2017-07-02T02:58:55.067Z,18.95
2017-07-02T02:59:35.572Z,19.1
2017-07-02T03:00:16.077Z,19.04
2017-07-02T03:00:56.566Z,19.02
2017-07-02T03:01:37.205Z,19
2017-07-02T03:02:17.638Z,19.07
2017-07-02T03:02:58.196Z,19.02
2017-07-02T03:03:38.711Z,19.07
2017-07-02T03:04:19.226Z,19.16
2017-07-02T03:04:59.759Z,19.14
2017-07-02T03:05:40.262Z,19.19
2017-07-02T03:06:20.868Z,19.26
2017-07-02T03:07:01.524Z,19.19
2017-07-02T03:07:42.259Z,19.19
2017-07-02T03:08:22.605Z,19.25
2017-07-02T03:09:03.126Z,19.23
2017-07-02T03:09:43.642Z,19.22
2017-07-02T03:10:24.166Z,19.16
2017-07-02T03:11:04.707Z,19.18
2017-07-02T03:11:45.242Z,19.16
2017-07-02T03:12:25.764Z,19.18
2017-07-02T03:13:06.303Z,19.14
2017-07-02T03:13:46.831Z,19.07
2017-07-02T03:14:27.387Z,19
2017-07-02T03:15:07.904Z,19.02
2017-07-02T03:15:48.442Z,19.06
2017-07-02T03:16:28.966Z,19.04
2017-07-02T03:17:09.495Z,19.11
2017-07-02T03:17:50.020Z,19.04
2017-07-02T03:18:30.635Z,19.04
2017-07-02T03:19:11.156Z,18.99
2017-07-02T03:19:51.692Z,19.02
2017-07-02T03:20:32.212Z,18.92
2017-07-02T03:21:12.735Z,19.08
2017-07-02T03:21:53.247Z,19.02
2017-07-02T03:22:33.775Z,18.99
2017-07-02T03:23:14.314Z,19
2017-07-02T03:23:54.840Z,19.11
2017-07-02T03:24:35.358Z,19
2017-07-02T03:25:15.880Z,19.02
2017-07-02T03:25:56.396Z,19
2017-07-02T03:26:36.916Z,18.98
2017-07-02T03:27:17.444Z,18.99
2017-07-02T03:27:57.962Z,18.98
2017-07-02T03:28:38.476Z,18.92
2017-07-02T03:29:18.998Z,18.88
2017-07-02T03:29:59.555Z,18.84
2017-07-02T03:30:40.033Z,18.81
2017-07-02T03:31:20.557Z,18.76
2017-07-02T03:32:01.079Z,18.9
2017-07-02T03:32:41.591Z,18.91
2017-07-02T03:33:22.108Z,18.85
2017-07-02T03:34:02.635Z,18.81
2017-07-02T03:34:43.157Z,18.78
2017-07-02T03:35:23.678Z,18.75
2017-07-02T03:36:04.201Z,18.76
2017-07-02T03:36:44.720Z,18.8
2017-07-02T03:37:25.250Z,18.87
2017-07-02T03:38:05.779Z,18.98
2017-07-02T03:38:46.299Z,18.85
2017-07-02T03:39:26.823Z,18.92
2017-07-02T03:40:07.355Z,18.98
2017-07-02T03:40:47.887Z,19
2017-07-02T03:41:28.431Z,18.98
2017-07-02T03:42:08.952Z,19.11
2017-07-02T03:42:49.491Z,18.99
2017-07-02T03:43:30.141Z,18.91
2017-07-02T03:44:10.540Z,18.76
2017-07-02T03:44:51.062Z,18.69
2017-07-02T03:45:31.594Z,18.76
2017-07-02T03:46:12.123Z,18.76
2017-07-02T03:46:52.646Z,18.87
2017-07-02T03:47:33.184Z,18.88
2017-07-02T03:48:13.706Z,18.73
2017-07-02T03:48:54.226Z,18.75
2017-07-02T03:49:34.754Z,18.73
2017-07-02T03:50:15.263Z,18.72
2017-07-02T03:50:55.793Z,18.78
2017-07-02T03:51:36.318Z,18.6
2017-07-02T03:52:16.846Z,18.67
2017-07-02T03:52:57.372Z,18.69
2017-07-02T03:53:37.939Z,18.78
2017-07-02T03:54:18.460Z,18.7
2017-07-02T03:54:58.967Z,18.73
2017-07-02T03:55:39.488Z,18.75
2017-07-02T03:56:20.004Z,18.78
2017-07-02T03:57:00.525Z,18.8
2017-07-02T03:57:41.044Z,18.84
2017-07-02T03:58:21.562Z,18.7
2017-07-02T03:59:02.082Z,18.75
2017-07-02T03:59:42.605Z,18.81
2017-07-02T04:00:23.124Z,18.87
2017-07-02T04:01:03.663Z,18.98
2017-07-02T04:01:44.185Z,18.95
2017-07-02T04:02:24.686Z,18.95
2017-07-02T04:03:05.206Z,18.78
2017-07-02T04:03:45.727Z,18.84
2017-07-02T04:04:26.238Z,18.9
2017-07-02T04:05:06.755Z,18.76
2017-07-02T04:05:47.283Z,18.85
2017-07-02T04:06:27.811Z,18.85
2017-07-02T04:07:08.383Z,18.78
2017-07-02T04:07:48.896Z,18.81
2017-07-02T04:08:29.422Z,18.9
2017-07-02T04:09:09.921Z,18.85
2017-07-02T04:09:50.438Z,18.82
2017-07-02T04:10:30.964Z,18.72
2017-07-02T04:11:11.482Z,18.72
2017-07-02T04:11:52.007Z,18.65
2017-07-02T04:12:32.538Z,18.65
2017-07-02T04:13:13.063Z,18.65
2017-07-02T04:13:53.577Z,18.69
2017-07-02T04:14:34.111Z,18.76
2017-07-02T04:15:14.609Z,18.67
2017-07-02T04:15:55.151Z,18.65
2017-07-02T04:18:09.487Z,18.67
2017-07-02T04:18:49.993Z,18.72
2017-07-02T04:19:30.621Z,18.73
2017-07-02T04:20:11.176Z,18.87
2017-07-02T04:20:51.738Z,18.78
2017-07-02T04:21:32.245Z,18.8
2017-07-02T04:22:12.795Z,18.82
2017-07-02T04:22:53.395Z,18.7
2017-07-02T04:23:33.850Z,18.72
2017-07-02T04:24:14.331Z,18.58
2017-07-02T04:24:54.928Z,18.75
2017-07-02T04:25:35.477Z,18.78
2017-07-02T04:26:16.019Z,18.73
2017-07-02T04:26:56.584Z,18.82
2017-07-02T04:27:37.042Z,18.82
2017-07-02T04:28:17.589Z,18.84
2017-07-02T04:28:58.099Z,18.82
2017-07-02T04:29:38.658Z,18.87
2017-07-02T04:30:19.139Z,18.85
2017-07-02T04:30:59.639Z,18.92
2017-07-02T04:31:40.287Z,18.98
2017-07-02T04:32:20.841Z,19
2017-07-02T04:33:01.388Z,19.07
2017-07-02T04:33:41.794Z,19.02
2017-07-02T04:34:22.365Z,18.99
2017-07-02T04:35:02.877Z,19.02
2017-07-02T04:35:43.392Z,18.98
2017-07-02T04:36:23.921Z,18.92
2017-07-02T04:37:04.388Z,18.91
2017-07-02T04:37:44.906Z,18.95
2017-07-02T04:39:58.215Z,19.07
2017-07-02T04:40:38.718Z,19.02
2017-07-02T04:41:19.258Z,19.02
2017-07-02T04:41:59.691Z,19
2017-07-02T04:42:40.227Z,18.98
2017-07-02T04:43:20.679Z,18.98
2017-07-02T04:44:01.232Z,18.99
2017-07-02T04:44:41.658Z,18.98
2017-07-02T04:45:22.196Z,19.14
2017-07-02T04:46:02.720Z,19.18
2017-07-02T04:46:43.304Z,19.19
2017-07-02T04:47:23.807Z,19.28
2017-07-02T04:48:04.318Z,19.16
2017-07-02T04:48:44.845Z,19.19
2017-07-02T04:49:25.321Z,19.29
2017-07-02T04:50:05.823Z,19.16
2017-07-02T04:50:46.327Z,19.16
2017-07-02T04:51:26.909Z,19.11
2017-07-02T04:52:07.518Z,19.07
2017-07-02T04:52:48.015Z,19.08
2017-07-02T04:53:28.514Z,19.08
2017-07-02T04:54:09.049Z,19.1
2017-07-02T04:54:49.591Z,19.19
2017-07-02T04:55:30.114Z,19.16
2017-07-02T04:56:10.608Z,19.13
2017-07-02T04:56:51.118Z,19.14
2017-07-02T04:57:31.624Z,19.11
2017-07-02T04:58:12.147Z,19.13
2017-07-02T04:58:52.624Z,19.1
2017-07-02T04:59:33.102Z,19.23
2017-07-02T05:00:13.603Z,19.13
2017-07-02T05:00:54.103Z,19.19
2017-07-02T05:01:34.606Z,19.28
2017-07-02T05:02:15.106Z,19.31
2017-07-02T05:02:55.607Z,19.29
2017-07-02T05:03:36.167Z,19.33
2017-07-02T05:04:16.669Z,19.39
2017-07-02T05:04:57.155Z,19.41
2017-07-02T05:05:37.617Z,19.44
2017-07-02T05:06:18.114Z,19.29
2017-07-02T05:06:58.610Z,19.29
2017-07-02T05:07:39.077Z,19.16
2017-07-02T05:08:19.602Z,19.11
2017-07-02T05:09:00.123Z,19.1
2017-07-02T05:09:40.610Z,19.08
2017-07-02T05:10:21.158Z,19.07
2017-07-02T05:11:01.638Z,19.06
2017-07-02T05:11:42.119Z,19.07
2017-07-02T05:12:22.590Z,19.18
2017-07-02T05:13:03.180Z,19.18
2017-07-02T05:13:43.641Z,19.08
2017-07-02T05:14:24.109Z,19.11
2017-07-02T05:15:04.615Z,18.95
2017-07-02T05:15:45.126Z,18.98
2017-07-02T05:16:25.589Z,18.95
2017-07-02T05:17:06.125Z,18.94
2017-07-02T05:17:46.617Z,18.94
2017-07-02T05:18:27.136Z,19.04
2017-07-02T05:19:07.656Z,19.04
2017-07-02T05:19:48.168Z,19.02
2017-07-02T05:20:28.727Z,19
2017-07-02T05:21:09.195Z,19.1
2017-07-02T05:21:49.719Z,19.06
2017-07-02T05:22:30.451Z,19.07
2017-07-02T05:23:11.002Z,19.02
2017-07-02T05:23:51.508Z,19.02
2017-07-02T05:24:31.958Z,19.02
2017-07-02T05:25:12.508Z,19.08
2017-07-02T05:25:53.243Z,19.06
2017-07-02T05:26:33.458Z,19.11
2017-07-02T05:27:13.980Z,19.16
2017-07-02T05:27:54.494Z,19.18
2017-07-02T05:28:35.012Z,19.13
2017-07-02T05:29:15.504Z,19.16
2017-07-02T05:29:56.022Z,19.08
2017-07-02T05:30:36.592Z,19.08
2017-07-02T05:31:17.103Z,19.14
2017-07-02T05:31:57.608Z,19.26
2017-07-02T05:32:38.091Z,19.22
2017-07-02T05:33:18.655Z,19.29
2017-07-02T05:33:59.143Z,19.25
2017-07-02T05:34:39.758Z,19.32
2017-07-02T05:35:20.285Z,19.32
2017-07-02T05:36:00.899Z,19.4
2017-07-02T05:36:41.430Z,19.46
2017-07-02T05:37:21.941Z,19.48
2017-07-02T05:38:02.445Z,19.54
2017-07-02T05:38:42.947Z,19.41
2017-07-02T05:39:23.493Z,19.41
2017-07-02T05:40:04.069Z,19.48
2017-07-02T05:40:44.558Z,19.54
2017-07-02T05:41:25.080Z,19.5
2017-07-02T05:42:05.630Z,19.71
2017-07-02T05:42:46.150Z,19.68
2017-07-02T05:43:26.698Z,19.78
2017-07-02T05:44:07.186Z,19.87
2017-07-02T05:44:49.584Z,19.95
2017-07-02T05:45:28.212Z,20.05
2017-07-02T05:46:08.740Z,20.28
2017-07-02T05:46:49.201Z,20.41
2017-07-02T05:47:33.660Z,20.41
2017-07-02T05:48:14.238Z,20.38
2017-07-02T05:48:54.644Z,20.33
2017-07-02T05:49:35.134Z,20.33
2017-07-02T05:50:15.673Z,20.28
2017-07-02T05:50:56.215Z,20.26
2017-07-02T05:51:36.734Z,20.23
2017-07-02T05:52:17.242Z,20.06
2017-07-02T05:52:59.369Z,20.06
2017-07-02T05:53:38.637Z,20.21
2017-07-02T05:55:16.530Z,20.17
2017-07-02T05:55:57.950Z,20.26
2017-07-02T05:56:38.446Z,20.21
2017-07-02T05:57:18.938Z,20.39
2017-07-02T05:57:59.462Z,20.32
2017-07-02T05:58:39.917Z,20.28
2017-07-02T05:59:20.454Z,20.39
2017-07-02T06:00:00.960Z,20.33
2017-07-02T06:00:41.447Z,20.21
2017-07-02T06:01:22.142Z,20.21
2017-07-02T06:02:02.636Z,20.17
2017-07-02T06:02:43.124Z,20.23
2017-07-02T06:03:24.577Z,20.29
2017-07-02T06:04:05.096Z,20.38
2017-07-02T06:04:45.643Z,20.33
2017-07-02T06:05:26.870Z,20.33
2017-07-02T06:06:07.403Z,20.36
2017-07-02T06:06:47.960Z,20.31
2017-07-02T06:07:28.767Z,20.36
2017-07-02T06:08:09.299Z,20.33
2017-07-02T06:08:49.816Z,20.38
2017-07-02T06:09:30.371Z,20.36
2017-07-02T06:10:11.462Z,20.54
2017-07-02T06:12:09.838Z,20.41
2017-07-02T06:12:50.293Z,20.47
2017-07-02T06:13:31.028Z,20.39
2017-07-02T06:14:13.040Z,20.33
2017-07-02T06:14:54.258Z,20.29
2017-07-02T06:15:34.751Z,20.32
2017-07-02T06:16:15.412Z,20.14
2017-07-02T06:16:55.950Z,20.31
2017-07-02T06:17:36.488Z,20.36
2017-07-02T06:18:17.678Z,20.51
2017-07-02T06:18:58.187Z,20.48
2017-07-02T06:19:38.690Z,20.39
2017-07-02T06:20:19.164Z,20.47
2017-07-02T06:20:59.761Z,20.5
2017-07-02T06:21:40.259Z,20.51
2017-07-02T06:22:20.720Z,20.48
2017-07-02T06:23:01.295Z,20.39
2017-07-02T06:23:41.842Z,20.5
2017-07-02T06:24:22.292Z,20.47
2017-07-02T06:25:03.052Z,20.42
2017-07-02T06:25:43.789Z,20.43
2017-07-02T06:26:24.046Z,20.39
2017-07-02T06:27:04.540Z,20.17
2017-07-02T06:27:45.101Z,20.2
2017-07-02T06:28:25.675Z,20.26
2017-07-02T06:29:06.189Z,20.18
2017-07-02T06:29:46.821Z,20.29
2017-07-02T06:30:27.290Z,20.33
2017-07-02T06:31:07.972Z,20.39
2017-07-02T06:31:48.701Z,20.39
2017-07-02T06:32:29.069Z,20.38
2017-07-02T06:33:09.568Z,20.42
2017-07-02T06:33:50.216Z,20.35
2017-07-02T06:34:30.751Z,20.28
2017-07-02T06:35:11.225Z,20.21
2017-07-02T06:35:52.033Z,20.11
2017-07-02T06:36:32.478Z,20.18
2017-07-02T06:37:13.058Z,20.24
2017-07-02T06:37:53.536Z,20.24
2017-07-02T06:38:34.152Z,20.05
2017-07-02T06:39:15.206Z,20.17
2017-07-02T06:39:55.877Z,20.29
2017-07-02T06:40:36.359Z,20.21
2017-07-02T06:41:17.415Z,20.31
2017-07-02T06:41:57.870Z,20.36
2017-07-02T06:42:38.301Z,20.33
2017-07-02T06:43:18.809Z,20.36
2017-07-02T06:43:59.466Z,20.35
2017-07-02T06:44:39.819Z,20.33
2017-07-02T06:45:20.541Z,20.39
2017-07-02T06:46:01.076Z,20.28
2017-07-02T06:46:41.681Z,20.29
2017-07-02T06:47:22.253Z,20.41
2017-07-02T06:48:02.843Z,20.42
2017-07-02T06:48:43.368Z,20.36
2017-07-02T06:49:23.883Z,20.41
2017-07-02T06:50:04.318Z,20.47
2017-07-02T06:50:44.972Z,20.43
2017-07-02T06:51:25.821Z,20.38
2017-07-02T06:52:06.266Z,20.33
2017-07-02T06:52:46.708Z,20.2
2017-07-02T06:53:27.228Z,20.26
2017-07-02T06:54:07.812Z,20.26
2017-07-02T06:54:48.285Z,20.33
2017-07-02T06:55:28.955Z,20.38
2017-07-02T06:56:09.701Z,20.42
2017-07-02T06:56:50.120Z,20.36
2017-07-02T06:57:30.718Z,20.32
2017-07-02T06:58:11.234Z,20.32
2017-07-02T06:58:51.778Z,20.39
2017-07-02T06:59:32.301Z,20.47
2017-07-02T07:00:12.794Z,20.39
2017-07-02T07:00:53.562Z,20.43
2017-07-02T07:01:34.247Z,20.35
2017-07-02T07:02:14.734Z,20.47
2017-07-02T07:02:55.237Z,20.47
2017-07-02T07:03:35.718Z,20.43
2017-07-02T07:05:35.231Z,20.41
2017-07-02T07:06:15.708Z,20.42
2017-07-02T07:06:56.218Z,20.36
2017-07-02T07:07:36.777Z,20.48
2017-07-02T07:08:17.319Z,20.41
2017-07-02T07:08:57.821Z,20.32
2017-07-02T07:09:38.425Z,20.26
2017-07-02T07:10:18.912Z,20.31
2017-07-02T07:10:59.430Z,20.35
2017-07-02T07:11:39.972Z,20.29
2017-07-02T07:12:20.526Z,20.32
2017-07-02T07:13:00.991Z,20.38
2017-07-02T07:13:41.504Z,20.33
2017-07-02T07:14:22.037Z,20.35
2017-07-02T07:15:02.612Z,20.23
2017-07-02T07:15:43.109Z,19.95
2017-07-02T07:16:23.678Z,20.1
2017-07-02T07:17:04.083Z,20.13
2017-07-02T07:17:44.592Z,20.26
2017-07-02T07:18:25.077Z,20.17
2017-07-02T07:19:05.583Z,20.17
2017-07-02T07:19:46.143Z,20.32
2017-07-02T07:20:26.663Z,20.28
2017-07-02T07:21:07.197Z,20.35
2017-07-02T07:21:47.779Z,20.39
2017-07-02T07:22:28.262Z,20.43
2017-07-02T07:23:08.776Z,20.43
2017-07-02T07:23:49.325Z,20.52
2017-07-02T07:24:29.861Z,20.57
2017-07-02T07:25:10.402Z,20.58
2017-07-02T07:25:50.864Z,20.57
2017-07-02T07:26:31.392Z,20.55
2017-07-02T07:27:11.852Z,20.74
2017-07-02T07:27:52.511Z,20.76
2017-07-02T07:28:33.031Z,20.72
2017-07-02T07:29:13.624Z,20.74
2017-07-02T07:29:54.173Z,20.79
2017-07-02T07:30:34.671Z,20.8
2017-07-02T07:31:15.132Z,20.84
2017-07-02T07:31:55.639Z,20.72
2017-07-02T07:32:36.133Z,20.74
2017-07-02T07:33:16.834Z,20.79
2017-07-02T07:33:57.507Z,20.82
2017-07-02T07:34:38.017Z,20.7
2017-07-02T07:35:18.547Z,20.73
2017-07-02T07:35:59.029Z,20.69
2017-07-02T07:36:39.567Z,20.73
2017-07-02T07:37:20.017Z,20.69
2017-07-02T07:38:00.525Z,20.77
2017-07-02T07:38:40.996Z,20.8
2017-07-02T07:39:21.568Z,20.82
2017-07-02T07:40:02.022Z,20.67
2017-07-02T07:40:42.547Z,20.64
2017-07-02T07:41:23.087Z,20.59
2017-07-02T07:42:03.500Z,20.58
2017-07-02T07:42:44.027Z,20.73
2017-07-02T07:44:43.433Z,20.69
2017-07-02T07:45:23.894Z,20.62
2017-07-02T07:46:04.374Z,20.59
2017-07-02T07:46:44.920Z,20.58
2017-07-02T07:47:25.451Z,20.69
2017-07-02T07:48:05.949Z,20.64
2017-07-02T07:48:46.473Z,20.67
2017-07-02T07:49:26.923Z,20.58
2017-07-02T07:50:07.477Z,20.58
2017-07-02T07:50:47.941Z,20.69
2017-07-02T07:51:28.456Z,20.7
2017-07-02T07:52:08.990Z,20.72
2017-07-02T07:54:24.322Z,20.52
2017-07-02T07:56:38.037Z,20.48
2017-07-02T07:57:18.501Z,20.59
2017-07-02T07:57:59.138Z,20.58
2017-07-02T07:58:39.550Z,20.57
2017-07-02T07:59:19.986Z,20.59
2017-07-02T08:00:01.069Z,20.62
2017-07-02T08:00:41.636Z,20.54
2017-07-02T08:01:22.114Z,20.59
2017-07-02T08:02:02.622Z,20.62
2017-07-02T08:02:43.094Z,20.59
2017-07-02T08:03:23.631Z,20.67
2017-07-02T08:04:04.178Z,20.66
2017-07-02T08:04:45.010Z,20.64
2017-07-02T08:05:25.844Z,20.58
2017-07-02T08:06:06.414Z,20.62
2017-07-02T08:06:47.111Z,20.74
2017-07-02T08:07:27.321Z,20.74
2017-07-02T08:08:07.800Z,20.82
2017-07-02T08:08:48.371Z,20.92
2017-07-02T08:09:28.872Z,20.94
2017-07-02T08:10:09.391Z,20.99
2017-07-02T08:10:50.099Z,20.84
2017-07-02T08:11:30.656Z,20.91
2017-07-02T08:12:11.334Z,20.88
2017-07-02T08:12:51.574Z,21.06
2017-07-02T08:13:32.004Z,21.06
2017-07-02T08:14:12.521Z,21.1
2017-07-02T08:14:53.019Z,21.12
2017-07-02T08:15:33.616Z,21.14
2017-07-02T08:16:14.161Z,21.12
2017-07-02T08:16:54.635Z,21.16
2017-07-02T08:17:35.139Z,21.22
2017-07-02T08:18:15.685Z,21.16
2017-07-02T08:18:56.121Z,21.14
2017-07-02T08:19:36.740Z,21.07
2017-07-02T08:20:17.738Z,20.94
2017-07-02T08:20:58.200Z,20.98
2017-07-02T08:21:38.850Z,21.03
2017-07-02T08:22:19.442Z,21.03
2017-07-02T08:23:00.071Z,21.13
2017-07-02T08:23:40.459Z,21.22
2017-07-02T08:24:20.967Z,21.17
2017-07-02T08:25:01.456Z,21.27
2017-07-02T08:25:42.044Z,21.24
2017-07-02T08:26:22.495Z,21.32
2017-07-02T08:27:02.947Z,21.38
2017-07-02T08:27:43.438Z,21.37
2017-07-02T08:28:23.942Z,21.44
2017-07-02T08:29:04.449Z,21.43
2017-07-02T08:29:45.217Z,21.34
2017-07-02T08:30:26.306Z,21.34
2017-07-02T08:31:06.791Z,21.37
2017-07-02T08:31:47.282Z,21.35
2017-07-02T08:32:28.061Z,21.38
2017-07-02T08:33:08.479Z,21.47
2017-07-02T08:33:48.970Z,21.59
2017-07-02T08:34:29.487Z,21.71
2017-07-02T08:35:09.979Z,21.75
2017-07-02T08:35:50.379Z,21.8
2017-07-02T08:36:31.314Z,21.72
2017-07-02T08:37:12.183Z,21.72
2017-07-02T08:37:52.815Z,21.8
2017-07-02T08:38:33.373Z,21.8
2017-07-02T08:39:13.883Z,21.75
2017-07-02T08:39:54.349Z,21.74
2017-07-02T08:40:34.853Z,21.79
2017-07-02T08:41:15.373Z,21.82
2017-07-02T08:41:55.920Z,21.82
2017-07-02T08:42:36.392Z,21.98
2017-07-02T08:43:16.920Z,21.83
2017-07-02T08:43:57.395Z,21.82
2017-07-02T08:44:37.898Z,21.94
2017-07-02T08:45:18.431Z,22.05
2017-07-02T08:45:58.921Z,21.9
2017-07-02T08:46:39.478Z,21.84
2017-07-02T08:47:19.947Z,21.9
2017-07-02T08:48:00.412Z,21.94
2017-07-02T08:48:41.046Z,21.88
2017-07-02T08:49:21.528Z,21.79
2017-07-02T08:50:01.947Z,21.79
2017-07-02T08:50:42.481Z,21.75
2017-07-02T08:51:22.968Z,21.75
2017-07-02T08:52:04.212Z,21.74
2017-07-02T08:52:44.713Z,21.88
2017-07-02T08:53:25.157Z,21.91
2017-07-02T08:54:05.664Z,21.98
2017-07-02T08:54:46.188Z,22
2017-07-02T08:55:26.721Z,22
2017-07-02T08:56:07.155Z,22.1
2017-07-02T08:56:47.637Z,22.15
2017-07-02T08:57:28.045Z,22.15
2017-07-02T08:58:08.682Z,22.21
2017-07-02T08:58:49.115Z,22.18
2017-07-02T08:59:29.713Z,22.15
2017-07-02T09:00:10.207Z,22.42